Terminal Aerodrome Forecast
Issued by NWS Tampa Bay Area, FL

Home | Current Version | Previous Version | Text Only | Print | Product List | Glossary On
Versions: 1 2 3 4 5 6 7 8 9 10 11 12 13 14 15 16 17 18 19 20 21 22 23 24 25 26 27
000
FTUS42 KTBW 150300 AAA
TAFTPA
TAF AMD
KTPA 150309Z 1503/1524 VRB04KT P6SM FEW025 SCT100
     FM151400 16005KT P6SM SCT025 SCT100
     FM151800 24005KT P6SM VCTS SCT035CB SCT250=

USA.gov is the U.S. government's official web portal to all federal, state and local government web resources and services.